createdAt,value
2023-05-02T00:02:39.628Z,6.17
2023-05-02T00:05:41.191Z,6.20
2023-05-02T00:08:42.730Z,6.40
2023-05-02T00:11:44.111Z,5.83
2023-05-02T00:14:45.667Z,7.03
2023-05-02T00:17:47.362Z,6.40
2023-05-02T00:20:50.145Z,6.17
2023-05-02T00:23:51.645Z,6.50
2023-05-02T00:26:53.041Z,9.73
2023-05-02T00:29:54.992Z,6.87
2023-05-02T00:32:56.516Z,7.50
2023-05-02T00:35:57.999Z,7.10
2023-05-02T00:38:59.453Z,7.07
2023-05-02T00:42:01.374Z,7.23
2023-05-02T00:45:06.207Z,8.13
2023-05-02T00:48:09.236Z,7.73
2023-05-02T00:51:12.370Z,8.63
2023-05-02T00:54:14.346Z,14.00
2023-05-02T00:57:15.984Z,8.00
2023-05-02T01:00:17.490Z,8.20
2023-05-02T01:03:55.096Z,8.30
2023-05-02T01:07:09.370Z,7.77
2023-05-02T01:10:25.983Z,8.37
2023-05-02T01:13:33.950Z,8.30
2023-05-02T01:16:40.477Z,8.73
2023-05-02T01:19:49.254Z,7.70
2023-05-02T01:22:52.615Z,9.50
2023-05-02T01:26:16.690Z,10.03
2023-05-02T01:29:22.634Z,8.63
2023-05-02T01:32:26.333Z,8.33
2023-05-02T01:35:30.556Z,7.40
2023-05-02T01:38:34.733Z,7.10
2023-05-02T01:41:37.614Z,6.60
2023-05-02T01:44:41.125Z,6.53
2023-05-02T01:47:44.250Z,6.83
2023-05-02T01:50:48.029Z,6.60
2023-05-02T01:53:50.863Z,7.60
2023-05-02T01:56:52.696Z,9.43
2023-05-02T01:59:57.046Z,6.13
2023-05-02T02:03:00.078Z,7.73
2023-05-02T02:06:03.697Z,5.80
2023-05-02T02:09:05.985Z,6.93
2023-05-02T02:12:22.400Z,5.83
2023-05-02T02:15:34.187Z,5.37
2023-05-02T02:18:38.097Z,5.53
2023-05-02T02:21:42.348Z,5.07
2023-05-02T02:24:46.334Z,5.10
2023-05-02T02:27:49.008Z,4.97
2023-05-02T02:30:50.739Z,5.10
2023-05-02T02:33:52.584Z,6.37
2023-05-02T02:37:15.492Z,8.03
2023-05-02T02:40:20.886Z,6.50
2023-05-02T02:43:41.098Z,5.80
2023-05-02T02:46:50.537Z,6.60
2023-05-02T02:50:31.331Z,6.47
2023-05-02T02:54:00.283Z,6.47
2023-05-02T02:57:07.599Z,7.00
2023-05-02T03:00:15.907Z,6.03
2023-05-02T03:03:18.949Z,6.40
2023-05-02T03:06:20.795Z,7.37
2023-05-02T03:09:22.565Z,6.67
2023-05-02T03:12:25.590Z,7.47
2023-05-02T03:16:12.157Z,7.30
2023-05-02T03:19:13.638Z,6.40
2023-05-02T03:22:15.232Z,6.63
2023-05-02T03:25:16.765Z,8.30
2023-05-02T03:28:21.468Z,7.60
2023-05-02T03:31:26.382Z,7.10
2023-05-02T03:34:28.579Z,7.67
2023-05-02T03:37:30.978Z,8.20
2023-05-02T03:40:34.533Z,7.93
2023-05-02T03:43:36.206Z,7.80
2023-05-02T03:46:38.133Z,8.63
2023-05-02T03:49:43.273Z,8.63
2023-05-02T03:52:45.670Z,7.97
2023-05-02T03:55:48.078Z,8.40
2023-05-02T03:58:59.453Z,10.77
2023-05-02T04:02:02.227Z,7.97
2023-05-02T04:05:12.592Z,7.47
2023-05-02T04:08:15.024Z,8.80
2023-05-02T04:11:17.124Z,7.40
2023-05-02T04:14:18.989Z,9.07
2023-05-02T04:17:21.451Z,7.77
2023-05-02T04:20:25.097Z,7.53
2023-05-02T04:23:28.901Z,7.30
2023-05-02T04:26:34.364Z,7.23
2023-05-02T04:29:41.178Z,7.07
2023-05-02T04:32:44.185Z,6.60
2023-05-02T04:35:46.764Z,8.20
2023-05-02T04:38:49.424Z,8.40
2023-05-02T04:41:52.076Z,8.47
2023-05-02T04:44:54.903Z,8.20
2023-05-02T04:47:56.758Z,7.80
2023-05-02T04:50:58.213Z,6.23
2023-05-02T04:53:59.816Z,6.90
2023-05-02T04:57:03.631Z,5.57
2023-05-02T05:00:08.446Z,7.50
2023-05-02T05:03:10.593Z,6.73
2023-05-02T05:06:12.576Z,6.97
2023-05-02T05:09:14.159Z,6.50
2023-05-02T05:12:15.599Z,10.87
2023-05-02T05:15:18.073Z,7.00
2023-05-02T05:18:25.781Z,7.40
2023-05-02T05:21:28.316Z,7.97
2023-05-02T05:24:30.638Z,7.10
2023-05-02T05:27:34.446Z,8.07
2023-05-02T05:30:36.061Z,7.00
2023-05-02T05:33:39.882Z,8.17
2023-05-02T05:36:43.468Z,8.17
2023-05-02T05:39:44.914Z,8.70
2023-05-02T05:42:47.649Z,7.73
2023-05-02T05:45:56.856Z,8.27
2023-05-02T05:48:59.210Z,8.97
2023-05-02T05:52:02.814Z,9.93
2023-05-02T05:55:05.509Z,8.63
2023-05-02T05:58:08.503Z,9.77
2023-05-02T06:01:11.728Z,8.37
2023-05-02T06:04:13.336Z,9.20
2023-05-02T06:07:18.266Z,10.00
2023-05-02T06:10:21.296Z,12.03
2023-05-02T06:13:22.946Z,11.00
2023-05-02T06:16:25.404Z,11.70
2023-05-02T06:19:26.894Z,14.53
2023-05-02T06:22:28.309Z,14.77
2023-05-02T06:25:29.906Z,17.67
2023-05-02T06:28:31.917Z,16.70
2023-05-02T06:31:33.385Z,17.23
2023-05-02T06:34:34.886Z,17.83
2023-05-02T06:37:36.500Z,17.30
2023-05-02T06:40:45.029Z,19.77
2023-05-02T06:43:46.487Z,19.20
2023-05-02T06:46:47.995Z,19.10
2023-05-02T06:49:50.954Z,19.90
2023-05-02T06:52:52.333Z,18.97
2023-05-02T06:55:53.787Z,18.37
2023-05-02T06:58:55.309Z,21.57
2023-05-02T07:01:56.701Z,23.87
2023-05-02T07:04:58.078Z,26.40
2023-05-02T07:07:59.614Z,27.47
2023-05-02T07:11:02.161Z,29.27
2023-05-02T07:14:03.580Z,28.20
2023-05-02T07:17:05.127Z,35.17
2023-05-02T07:20:07.668Z,33.37
2023-05-02T07:23:09.326Z,29.97
2023-05-02T07:26:11.222Z,36.10
2023-05-02T07:29:12.654Z,35.60
2023-05-02T07:32:14.106Z,36.37
2023-05-02T07:35:15.649Z,38.50
2023-05-02T07:38:17.198Z,34.87
2023-05-02T07:41:18.576Z,36.83
2023-05-02T07:44:21.382Z,37.37
2023-05-02T07:47:22.888Z,38.00
2023-05-02T07:50:24.367Z,38.27
2023-05-02T07:53:26.205Z,36.70
2023-05-02T07:56:28.100Z,34.67
2023-05-02T07:59:31.147Z,40.47
2023-05-02T08:02:32.858Z,39.37
2023-05-02T08:05:34.366Z,37.33
2023-05-02T08:08:36.031Z,37.10
2023-05-02T08:11:37.460Z,38.30
2023-05-02T08:14:38.992Z,39.87
2023-05-02T08:17:40.438Z,38.53
2023-05-02T08:20:43.201Z,40.17
2023-05-02T08:23:46.183Z,36.07
2023-05-02T08:26:47.632Z,35.47
2023-05-02T08:29:49.079Z,33.00
2023-05-02T08:32:50.600Z,30.43
2023-05-02T08:35:52.875Z,30.23
2023-05-02T08:38:54.384Z,28.30
2023-05-02T08:41:55.787Z,25.40
2023-05-02T08:44:57.934Z,24.10
2023-05-02T08:48:00.195Z,24.03
2023-05-02T08:51:02.924Z,25.83
2023-05-02T08:54:07.466Z,27.60
2023-05-02T08:57:08.916Z,26.07
2023-05-02T09:00:11.411Z,24.57
2023-05-02T09:03:31.287Z,24.30
2023-05-02T09:06:32.788Z,27.43
2023-05-02T09:09:34.439Z,28.13
2023-05-02T09:12:35.870Z,30.10
2023-05-02T09:15:37.457Z,26.73
2023-05-02T09:18:49.647Z,26.73
2023-05-02T09:21:51.045Z,28.67
2023-05-02T09:24:55.645Z,31.50
2023-05-02T09:27:57.200Z,32.63
2023-05-02T09:31:14.074Z,32.30
2023-05-02T09:34:17.374Z,34.33
2023-05-02T09:37:35.638Z,34.67
2023-05-02T09:40:37.721Z,32.97
2023-05-02T09:43:40.148Z,33.73
2023-05-02T09:46:43.045Z,33.47
2023-05-02T09:49:46.288Z,34.40
2023-05-02T09:53:01.266Z,31.97
2023-05-02T09:56:04.406Z,31.87
2023-05-02T09:59:14.482Z,29.87
2023-05-02T10:02:16.025Z,31.00
2023-05-02T10:05:18.036Z,27.30
2023-05-02T10:08:20.447Z,25.90
2023-05-02T10:11:22.539Z,24.63
2023-05-02T10:14:29.480Z,23.73
2023-05-02T10:17:34.090Z,22.57
2023-05-02T10:20:41.303Z,20.53
2023-05-02T10:23:46.375Z,21.37
2023-05-02T10:26:48.407Z,18.53
2023-05-02T10:29:51.782Z,19.23
2023-05-02T10:32:56.751Z,21.43
2023-05-02T10:35:58.613Z,22.10
2023-05-02T10:39:00.998Z,21.90
2023-05-02T10:42:04.531Z,21.30
2023-05-02T10:45:11.966Z,25.63
2023-05-02T10:48:26.651Z,26.30
2023-05-02T10:51:31.933Z,26.27
2023-05-02T10:54:33.340Z,21.07
2023-05-02T10:57:34.861Z,25.00
2023-05-02T11:00:36.512Z,26.73
2023-05-02T11:03:57.480Z,27.37
2023-05-02T11:07:02.148Z,26.77
2023-05-02T11:10:20.251Z,23.97
2023-05-02T11:13:50.709Z,23.47
2023-05-02T11:16:58.673Z,24.23
2023-05-02T11:20:01.651Z,23.97
2023-05-02T11:23:15.414Z,25.20
2023-05-02T11:26:23.169Z,23.10
2023-05-02T11:29:51.573Z,21.77
2023-05-02T11:32:53.476Z,21.80
2023-05-02T11:35:56.867Z,19.10
2023-05-02T11:38:58.322Z,22.23
2023-05-02T11:41:59.735Z,19.63
2023-05-02T11:45:01.568Z,16.43
2023-05-02T11:48:07.313Z,18.20
2023-05-02T11:51:08.929Z,17.23
2023-05-02T11:54:18.641Z,14.63
2023-05-02T11:57:20.115Z,12.40
2023-05-02T12:00:27.387Z,13.83
2023-05-02T12:03:31.400Z,13.63
2023-05-02T12:06:33.693Z,12.87
2023-05-02T12:09:35.117Z,12.97
2023-05-02T12:12:37.313Z,12.97
2023-05-02T12:15:38.932Z,12.63
2023-05-02T12:18:40.853Z,11.90
2023-05-02T12:21:42.458Z,11.63
2023-05-02T12:24:44.360Z,11.07
2023-05-02T12:28:02.389Z,10.60
2023-05-02T12:31:10.995Z,15.80
2023-05-02T12:34:12.436Z,12.43
2023-05-02T12:37:23.214Z,11.30
2023-05-02T12:40:25.973Z,10.63
2023-05-02T12:43:27.376Z,12.70
2023-05-02T12:46:29.458Z,7.80
2023-05-02T12:49:31.066Z,11.50
2023-05-02T12:52:59.047Z,7.73
2023-05-02T12:56:03.716Z,7.40
2023-05-02T12:59:05.768Z,7.37
2023-05-02T13:02:07.588Z,8.63
2023-05-02T13:05:16.142Z,9.27
2023-05-02T13:08:17.512Z,10.03
2023-05-02T13:11:20.471Z,13.00
2023-05-02T13:14:21.965Z,9.77
2023-05-02T13:17:23.525Z,13.70
2023-05-02T13:20:25.192Z,12.53
2023-05-02T13:23:26.641Z,7.90
2023-05-02T13:26:28.154Z,14.47
2023-05-02T13:29:29.744Z,6.10
2023-05-02T13:32:31.330Z,6.97
2023-05-02T13:35:33.522Z,8.40
2023-05-02T13:38:36.715Z,7.27
2023-05-02T13:41:38.148Z,6.13
2023-05-02T13:44:39.651Z,4.60
2023-05-02T13:47:41.655Z,3.63
2023-05-02T13:50:43.302Z,4.60
2023-05-02T13:53:45.245Z,3.93
2023-05-02T13:56:46.713Z,3.20
2023-05-02T13:59:48.158Z,4.67
2023-05-02T14:02:49.615Z,4.87
2023-05-02T14:05:51.165Z,4.10
2023-05-02T14:08:52.664Z,6.47
2023-05-02T14:11:54.177Z,5.07
2023-05-02T14:14:55.628Z,5.90
2023-05-02T14:17:58.045Z,5.60
2023-05-02T14:21:00.091Z,5.37
2023-05-02T14:24:01.664Z,5.77
2023-05-02T14:27:04.545Z,3.33
2023-05-02T14:30:07.187Z,5.33
2023-05-02T14:33:08.777Z,5.07
2023-05-02T14:36:10.272Z,5.67
2023-05-02T14:39:11.666Z,4.77
2023-05-02T14:42:13.063Z,6.90
2023-05-02T14:45:14.595Z,6.43
2023-05-02T14:48:17.401Z,6.60
2023-05-02T14:51:19.000Z,5.07
2023-05-02T14:54:20.572Z,7.10
2023-05-02T14:57:21.956Z,6.50
2023-05-02T15:00:23.714Z,5.10
2023-05-02T15:03:25.449Z,7.00
2023-05-02T15:06:32.961Z,6.30
2023-05-02T15:09:34.462Z,5.23
2023-05-02T15:12:35.881Z,5.77
2023-05-02T15:15:37.443Z,6.57
2023-05-02T15:18:38.952Z,6.23
2023-05-02T15:21:40.547Z,6.20
2023-05-02T15:24:42.126Z,8.13
2023-05-02T15:27:44.192Z,6.77
2023-05-02T15:30:45.985Z,6.40
2023-05-02T15:33:47.796Z,5.87
2023-05-02T15:36:49.172Z,5.77
2023-05-02T15:39:51.882Z,5.13
2023-05-02T15:42:53.305Z,5.80
2023-05-02T15:45:59.625Z,7.37
2023-05-02T15:49:01.208Z,6.73
2023-05-02T15:52:03.157Z,5.57
2023-05-02T15:55:05.063Z,5.33
2023-05-02T15:58:06.588Z,4.93
2023-05-02T16:01:08.185Z,3.83
2023-05-02T16:04:09.899Z,3.87
2023-05-02T16:07:11.429Z,3.43
2023-05-02T16:10:12.945Z,3.00
2023-05-02T16:13:14.391Z,2.97
2023-05-02T16:16:15.907Z,7.60
2023-05-02T16:19:17.894Z,4.57
2023-05-02T16:22:19.462Z,3.63
2023-05-02T16:25:21.111Z,4.27
2023-05-02T16:28:22.478Z,3.90
2023-05-02T16:31:23.953Z,5.63
2023-05-02T16:34:25.769Z,3.10
2023-05-02T16:37:27.245Z,5.40
2023-05-02T16:40:28.693Z,5.87
2023-05-02T16:43:30.100Z,6.43
2023-05-02T16:46:31.744Z,3.53
2023-05-02T16:49:33.487Z,5.07
2023-05-02T16:52:37.446Z,6.43
2023-05-02T16:55:38.952Z,7.13
2023-05-02T16:58:42.256Z,10.20
2023-05-02T17:01:43.660Z,4.00
2023-05-02T17:04:45.049Z,8.07
2023-05-02T17:07:46.585Z,4.13
2023-05-02T17:10:49.902Z,4.30
2023-05-02T17:13:52.484Z,4.10
2023-05-02T17:16:53.899Z,6.67
2023-05-02T17:19:55.466Z,5.73
2023-05-02T17:22:57.621Z,4.03
2023-05-02T17:25:59.258Z,3.90
2023-05-02T17:29:00.738Z,7.97
2023-05-02T17:32:02.467Z,4.80
2023-05-02T17:35:04.380Z,4.57
2023-05-02T17:38:05.867Z,6.30
2023-05-02T17:41:07.322Z,5.30
2023-05-02T17:44:10.058Z,4.60
2023-05-02T17:47:12.069Z,5.13
2023-05-02T17:50:15.052Z,5.63
2023-05-02T17:53:16.819Z,4.80
2023-05-02T17:56:21.276Z,7.93
2023-05-02T17:59:22.885Z,5.10
2023-05-02T18:02:25.794Z,4.50
2023-05-02T18:05:27.954Z,5.23
2023-05-02T18:08:31.185Z,5.97
2023-05-02T18:11:33.084Z,5.40
2023-05-02T18:14:34.840Z,5.30
2023-05-02T18:17:37.452Z,6.23
2023-05-02T18:20:40.509Z,7.17
2023-05-02T18:23:42.537Z,7.27
2023-05-02T18:26:43.945Z,4.63
2023-05-02T18:29:45.395Z,6.40
2023-05-02T18:32:46.961Z,6.17
2023-05-02T18:35:48.947Z,6.27
2023-05-02T18:38:50.372Z,5.07
2023-05-02T18:41:51.746Z,4.53
2023-05-02T18:44:53.303Z,5.47
2023-05-02T18:47:54.791Z,6.60
2023-05-02T18:50:56.798Z,5.77
2023-05-02T18:53:58.210Z,4.00
2023-05-02T18:57:02.744Z,9.00
2023-05-02T19:00:06.440Z,5.17
2023-05-02T19:03:08.002Z,4.37
2023-05-02T19:06:10.233Z,5.87
2023-05-02T19:09:15.711Z,6.67
2023-05-02T19:12:17.125Z,5.93
2023-05-02T19:15:18.851Z,4.43
2023-05-02T19:18:23.074Z,7.13
2023-05-02T19:21:24.486Z,5.60
2023-05-02T19:24:27.494Z,4.37
2023-05-02T19:27:29.256Z,4.93
2023-05-02T19:30:30.669Z,5.97
2023-05-02T19:33:32.081Z,4.93
2023-05-02T19:36:34.647Z,6.70
2023-05-02T19:39:36.539Z,7.40
2023-05-02T19:42:39.245Z,4.03
2023-05-02T19:45:40.875Z,6.20
2023-05-02T19:48:42.489Z,6.27
2023-05-02T19:51:43.975Z,5.33
2023-05-02T19:54:45.539Z,5.10
2023-05-02T19:57:50.164Z,5.23
2023-05-02T20:00:52.769Z,4.17
2023-05-02T20:03:54.830Z,5.77
2023-05-02T20:06:56.265Z,5.20
2023-05-02T20:09:58.568Z,8.10
2023-05-02T20:13:00.010Z,5.93
2023-05-02T20:16:01.646Z,4.03
2023-05-02T20:19:04.152Z,5.37
2023-05-02T20:22:05.677Z,5.40
2023-05-02T20:25:09.558Z,4.20
2023-05-02T20:28:10.988Z,4.30
2023-05-02T20:31:12.417Z,5.67
2023-05-02T20:34:13.886Z,10.57
2023-05-02T20:37:15.771Z,5.57
2023-05-02T20:40:18.891Z,7.23
2023-05-02T20:43:22.935Z,5.87
2023-05-02T20:46:24.391Z,6.00
2023-05-02T20:49:26.008Z,5.30
2023-05-02T20:52:27.386Z,4.77
2023-05-02T20:55:29.549Z,6.07
2023-05-02T20:58:31.493Z,6.47
2023-05-02T21:01:33.476Z,5.13
2023-05-02T21:04:34.953Z,4.93
2023-05-02T21:07:36.555Z,4.90
2023-05-02T21:10:38.062Z,5.47
2023-05-02T21:13:39.429Z,4.63
2023-05-02T21:16:40.850Z,6.77
2023-05-02T21:19:42.237Z,7.03
2023-05-02T21:22:43.671Z,8.63
2023-05-02T21:25:45.245Z,5.73
2023-05-02T21:28:46.701Z,5.40
2023-05-02T21:31:48.171Z,8.30
2023-05-02T21:34:49.573Z,4.43
2023-05-02T21:37:50.935Z,6.17
2023-05-02T21:40:53.137Z,6.00
2023-05-02T21:43:54.699Z,5.23
2023-05-02T21:46:56.135Z,6.13
2023-05-02T21:49:57.588Z,8.53
2023-05-02T21:52:58.976Z,5.83
2023-05-02T21:56:00.780Z,6.13
2023-05-02T21:59:02.817Z,6.33
2023-05-02T22:02:04.239Z,5.60
2023-05-02T22:05:05.836Z,5.80
2023-05-02T22:08:08.983Z,4.50
2023-05-02T22:11:10.502Z,4.87
2023-05-02T22:14:11.903Z,6.17
2023-05-02T22:17:13.661Z,5.90
2023-05-02T22:20:15.114Z,4.73
2023-05-02T22:23:16.547Z,6.70
2023-05-02T22:26:17.918Z,5.70
2023-05-02T22:29:19.281Z,4.90
2023-05-02T22:32:22.352Z,7.37
2023-05-02T22:35:23.728Z,5.43
2023-05-02T22:38:25.219Z,5.83
2023-05-02T22:41:26.588Z,5.53
2023-05-02T22:44:28.004Z,5.03
2023-05-02T22:47:29.614Z,5.30
2023-05-02T22:50:31.077Z,5.37
2023-05-02T22:53:32.455Z,4.30
2023-05-02T22:56:34.267Z,5.00
2023-05-02T22:59:35.713Z,5.23
2023-05-02T23:02:37.530Z,4.70
2023-05-02T23:05:39.158Z,6.27
2023-05-02T23:08:40.582Z,10.07
2023-05-02T23:11:42.042Z,6.00
2023-05-02T23:14:44.862Z,4.87
2023-05-02T23:17:46.295Z,8.07
2023-05-02T23:20:47.704Z,6.50
2023-05-02T23:23:49.100Z,8.13
2023-05-02T23:26:50.940Z,5.80
2023-05-02T23:29:52.359Z,4.67
2023-05-02T23:32:53.887Z,6.67
2023-05-02T23:35:55.343Z,7.20
2023-05-02T23:38:56.863Z,5.60
2023-05-02T23:41:58.394Z,5.67
2023-05-02T23:44:59.922Z,5.33
2023-05-02T23:48:01.519Z,5.33
2023-05-02T23:51:02.982Z,6.37
2023-05-02T23:54:04.475Z,6.40
2023-05-02T23:57:05.861Z,5.37
